WHISKEYTOWN DAM (USBR) (WHI)

Elevation: 1210' · SACRAMENTO R basin · Operator: US Bureau of Reclamation

Provisional data, subject to change.
Query executed Friday at 22:12:41   clock

Select a sensor type for a plot of data.
Note: Reservoir Flows are daily averages.

Earlier

Date RES ELE    STORAGE    RES CHG    OUTFLOW    INFLOW    EVAP    RIV REL    PPT INC    RAIN    SPILL    DIS PWR   
 FEET   AF   AF   CFS   CFS   CFS   CFS   INCHES   INCHES   CFS   CFS  
03/20/2014 1199.07 207363 -475 256 19 2 200 0.00 23.33 0 56
03/21/2014 1198.94 206978 -385 627 444 11 200 0.00 23.33 0 427
03/22/2014 1198.92 206919 -59 486 466 10 200 0.00 23.33 0 286
03/23/2014 1198.88 206801 -118 574 525 10 200 0.00 23.33 0 374
03/24/2014 1198.76 206448 -353 722 558 14 200 0.00 23.33 0 522
03/25/2014 1198.57 205888 -560 744 472 10 202 0.00 23.33 0 542
03/26/2014 1198.43 205476 -412 810 602 0 202 0.68 24.01 0 608
03/27/2014 1198.49 205653 177 478 567 0 202 0.91 24.92 0 276
03/28/2014 1199.06 207333 1680 545 1394 2 202 0.30 25.22 0 343
03/29/2014 1199.08 207393 60 1246 1278 2 202 2.86 28.08 0 1044
03/30/2014 1199.22 207808 415 575 787 3 202 0.10 28.18 0 373
03/31/2014 1199.47 208551 743 583 958 0 202 0.34 28.52 0 381
04/01/2014 1199.11 207482 -1069 1661 1122 0 202 1.32 29.84 0 1459
04/02/2014 1199.28 207987 505 703 958 0 202 0.68 30.52 0 501
04/03/2014 1199.38 208284 297 848 1002 4 202 0.00 30.52 0 646
04/04/2014 1199.22 207808 -476 1912 1675 3 202 0.15 30.67 0 1710
04/05/2014 1199.27 207957 149 1640 1720 5 202 0.02 30.69 0 1438
04/06/2014 1199.54 208759 802 1199 1611 8 202 0.00 30.69 0 997
04/07/2014 1199.20 207749 -1010 2214 1715 10 201 0.00 30.69 0 2013
04/08/2014 1199.09 207422 -327 1787 1635 13 201 0.00 30.69 0 1586
04/09/2014 1198.87 206772 -650 1997 1681 12 200 0.00 30.69 0 1797
04/10/2014 1199.18 207690 918 1087 1561 11 199 0.00 30.69 0 888
04/11/2014 1199.48 208581 891 1093 1553 11 199 0.00 30.69 0 894
04/12/2014 1199.81 209561 980 1073 1597 30 200 0.00 30.69 0 873
04/13/2014 1200.68 212161 2600 217 1558 30 199 0.00 30.69 0 18
04/14/2014 1201.36 214205 2044 371 1415 13 225 0.00 30.69 0 146
04/15/2014 1202.07 216349 2144 431 1527 15 285 0.00 30.69 0 146
04/16/2014 1202.76 218446 2097 504 1574 13 359 0.00 30.69 0 145
04/17/2014 1203.42 220461 2015 521 1551 14 376 0.00 30.69 0 145
04/18/2014 -- -- -- -- -- -- -- -- -- -- --

Later | Latest

Warning! This data is preliminary and subject to revision.

Download Data Now Download Data Now | Show WHI Map | Plot WHI Data | 1 Month WHI Data | Real-Time WHI Data | WHI Info